sensor_id;sensor_type;location;lat;lon;timestamp;P1;durP1;ratioP1;P2;durP2;ratioP2
7487;SDS011;3785;52.260;4.728;2023-09-19T00:00:15;2.65;;;0.88;;
7487;SDS011;3785;52.260;4.728;2023-09-19T00:03:39;1.40;;;0.52;;
7487;SDS011;3785;52.260;4.728;2023-09-19T00:07:02;2.88;;;1.10;;
7487;SDS011;3785;52.260;4.728;2023-09-19T00:10:24;4.43;;;0.93;;
7487;SDS011;3785;52.260;4.728;2023-09-19T00:13:49;2.72;;;0.85;;
7487;SDS011;3785;52.260;4.728;2023-09-19T00:17:11;3.63;;;0.60;;
7487;SDS011;3785;52.260;4.728;2023-09-19T00:20:32;2.58;;;0.80;;
7487;SDS011;3785;52.260;4.728;2023-09-19T00:23:54;3.78;;;0.80;;
7487;SDS011;3785;52.260;4.728;2023-09-19T00:27:15;2.03;;;0.50;;
7487;SDS011;3785;52.260;4.728;2023-09-19T00:30:36;4.85;;;1.13;;
7487;SDS011;3785;52.260;4.728;2023-09-19T00:33:58;2.28;;;0.70;;
7487;SDS011;3785;52.260;4.728;2023-09-19T00:37:24;3.58;;;0.80;;
7487;SDS011;3785;52.260;4.728;2023-09-19T00:40:45;4.53;;;0.70;;
7487;SDS011;3785;52.260;4.728;2023-09-19T00:44:06;2.35;;;0.70;;
7487;SDS011;3785;52.260;4.728;2023-09-19T00:47:27;4.53;;;1.30;;
7487;SDS011;3785;52.260;4.728;2023-09-19T00:50:49;4.72;;;1.23;;
7487;SDS011;3785;52.260;4.728;2023-09-19T00:54:11;2.72;;;0.70;;
7487;SDS011;3785;52.260;4.728;2023-09-19T00:57:38;3.42;;;0.88;;
7487;SDS011;3785;52.260;4.728;2023-09-19T01:00:59;1.92;;;0.57;;
7487;SDS011;3785;52.260;4.728;2023-09-19T01:04:20;3.92;;;0.93;;
7487;SDS011;3785;52.260;4.728;2023-09-19T01:07:41;3.47;;;0.80;;
7487;SDS011;3785;52.260;4.728;2023-09-19T01:11:13;2.95;;;0.70;;
7487;SDS011;3785;52.260;4.728;2023-09-19T01:14:42;1.70;;;0.70;;
7487;SDS011;3785;52.260;4.728;2023-09-19T01:28:32;2.75;;;0.55;;
7487;SDS011;3785;52.260;4.728;2023-09-19T01:32:01;5.13;;;0.98;;
7487;SDS011;3785;52.260;4.728;2023-09-19T01:35:24;12.52;;;0.95;;
7487;SDS011;3785;52.260;4.728;2023-09-19T01:38:46;3.35;;;0.88;;
7487;SDS011;3785;52.260;4.728;2023-09-19T01:42:11;3.83;;;1.10;;
7487;SDS011;3785;52.260;4.728;2023-09-19T01:49:07;4.63;;;0.80;;
7487;SDS011;3785;52.260;4.728;2023-09-19T01:52:31;2.78;;;0.73;;
7487;SDS011;3785;52.260;4.728;2023-09-19T01:55:57;5.13;;;0.95;;
7487;SDS011;3785;52.260;4.728;2023-09-19T01:59:24;4.57;;;1.17;;
7487;SDS011;3785;52.260;4.728;2023-09-19T02:02:47;5.43;;;1.13;;
7487;SDS011;3785;52.260;4.728;2023-09-19T02:06:08;5.55;;;1.00;;
7487;SDS011;3785;52.260;4.728;2023-09-19T02:09:34;3.88;;;1.10;;
7487;SDS011;3785;52.260;4.728;2023-09-19T02:12:55;4.13;;;0.90;;
7487;SDS011;3785;52.260;4.728;2023-09-19T02:16:16;4.18;;;1.00;;
7487;SDS011;3785;52.260;4.728;2023-09-19T02:19:39;3.80;;;1.27;;
7487;SDS011;3785;52.260;4.728;2023-09-19T02:23:00;4.47;;;1.20;;
7487;SDS011;3785;52.260;4.728;2023-09-19T02:26:22;2.63;;;0.73;;
7487;SDS011;3785;52.260;4.728;2023-09-19T02:29:43;3.20;;;0.73;;
7487;SDS011;3785;52.260;4.728;2023-09-19T02:33:04;4.85;;;0.90;;
7487;SDS011;3785;52.260;4.728;2023-09-19T02:36:25;3.15;;;1.02;;
7487;SDS011;3785;52.260;4.728;2023-09-19T02:39:46;4.82;;;1.02;;
7487;SDS011;3785;52.260;4.728;2023-09-19T02:43:07;3.75;;;0.73;;
7487;SDS011;3785;52.260;4.728;2023-09-19T02:46:29;4.43;;;0.98;;
7487;SDS011;3785;52.260;4.728;2023-09-19T02:49:50;3.10;;;0.70;;
7487;SDS011;3785;52.260;4.728;2023-09-19T02:53:11;5.20;;;1.05;;
7487;SDS011;3785;52.260;4.728;2023-09-19T02:56:33;3.78;;;0.95;;
7487;SDS011;3785;52.260;4.728;2023-09-19T02:59:55;6.38;;;1.13;;
7487;SDS011;3785;52.260;4.728;2023-09-19T03:03:16;3.60;;;0.77;;
7487;SDS011;3785;52.260;4.728;2023-09-19T03:06:37;2.25;;;0.70;;
7487;SDS011;3785;52.260;4.728;2023-09-19T03:09:59;3.58;;;0.80;;
7487;SDS011;3785;52.260;4.728;2023-09-19T03:13:20;3.72;;;0.90;;
7487;SDS011;3785;52.260;4.728;2023-09-19T03:16:41;2.47;;;0.90;;
7487;SDS011;3785;52.260;4.728;2023-09-19T03:20:02;1.73;;;0.68;;
7487;SDS011;3785;52.260;4.728;2023-09-19T03:23:28;3.88;;;0.65;;
7487;SDS011;3785;52.260;4.728;2023-09-19T03:26:50;5.60;;;0.80;;
7487;SDS011;3785;52.260;4.728;2023-09-19T03:30:11;4.75;;;0.77;;
7487;SDS011;3785;52.260;4.728;2023-09-19T03:33:33;3.90;;;1.02;;
7487;SDS011;3785;52.260;4.728;2023-09-19T03:36:54;3.83;;;0.70;;
7487;SDS011;3785;52.260;4.728;2023-09-19T03:40:15;3.95;;;1.33;;
7487;SDS011;3785;52.260;4.728;2023-09-19T03:43:37;4.75;;;1.17;;
7487;SDS011;3785;52.260;4.728;2023-09-19T03:46:58;5.82;;;0.90;;
7487;SDS011;3785;52.260;4.728;2023-09-19T03:50:19;3.45;;;0.98;;
7487;SDS011;3785;52.260;4.728;2023-09-19T03:53:40;2.00;;;0.80;;
7487;SDS011;3785;52.260;4.728;2023-09-19T03:57:01;2.90;;;0.70;;
7487;SDS011;3785;52.260;4.728;2023-09-19T04:00:23;2.65;;;0.60;;
7487;SDS011;3785;52.260;4.728;2023-09-19T04:03:46;3.25;;;0.57;;
7487;SDS011;3785;52.260;4.728;2023-09-19T04:07:07;2.53;;;0.75;;
7487;SDS011;3785;52.260;4.728;2023-09-19T04:10:28;1.73;;;0.63;;
7487;SDS011;3785;52.260;4.728;2023-09-19T04:13:49;2.92;;;0.60;;
7487;SDS011;3785;52.260;4.728;2023-09-19T04:17:10;1.65;;;0.77;;
7487;SDS011;3785;52.260;4.728;2023-09-19T04:20:31;4.72;;;0.88;;
7487;SDS011;3785;52.260;4.728;2023-09-19T04:23:52;3.50;;;0.82;;
7487;SDS011;3785;52.260;4.728;2023-09-19T04:27:14;3.20;;;0.70;;
7487;SDS011;3785;52.260;4.728;2023-09-19T04:30:34;5.43;;;0.93;;
7487;SDS011;3785;52.260;4.728;2023-09-19T04:33:56;4.38;;;0.63;;
7487;SDS011;3785;52.260;4.728;2023-09-19T04:37:17;3.30;;;0.80;;
7487;SDS011;3785;52.260;4.728;2023-09-19T04:40:38;2.38;;;0.98;;
7487;SDS011;3785;52.260;4.728;2023-09-19T04:44:00;2.67;;;0.63;;
7487;SDS011;3785;52.260;4.728;2023-09-19T04:47:21;4.78;;;0.77;;
7487;SDS011;3785;52.260;4.728;2023-09-19T04:50:42;5.93;;;0.82;;
7487;SDS011;3785;52.260;4.728;2023-09-19T04:54:04;2.20;;;0.60;;
7487;SDS011;3785;52.260;4.728;2023-09-19T04:57:25;3.50;;;1.15;;
7487;SDS011;3785;52.260;4.728;2023-09-19T05:00:46;2.72;;;0.70;;
7487;SDS011;3785;52.260;4.728;2023-09-19T05:04:07;2.92;;;0.77;;
7487;SDS011;3785;52.260;4.728;2023-09-19T05:07:28;4.03;;;0.80;;
7487;SDS011;3785;52.260;4.728;2023-09-19T05:10:49;2.28;;;0.82;;
7487;SDS011;3785;52.260;4.728;2023-09-19T05:14:10;2.95;;;0.70;;
7487;SDS011;3785;52.260;4.728;2023-09-19T05:17:31;2.20;;;0.60;;
7487;SDS011;3785;52.260;4.728;2023-09-19T05:20:52;2.38;;;0.90;;
7487;SDS011;3785;52.260;4.728;2023-09-19T05:24:14;2.22;;;0.65;;
7487;SDS011;3785;52.260;4.728;2023-09-19T05:27:36;1.02;;;0.60;;
7487;SDS011;3785;52.260;4.728;2023-09-19T05:31:00;3.33;;;0.98;;
7487;SDS011;3785;52.260;4.728;2023-09-19T05:34:22;2.30;;;0.80;;
7487;SDS011;3785;52.260;4.728;2023-09-19T05:37:43;5.05;;;1.20;;
7487;SDS011;3785;52.260;4.728;2023-09-19T05:41:04;3.20;;;0.80;;
7487;SDS011;3785;52.260;4.728;2023-09-19T05:44:26;2.20;;;0.93;;
7487;SDS011;3785;52.260;4.728;2023-09-19T05:47:48;3.83;;;1.02;;
7487;SDS011;3785;52.260;4.728;2023-09-19T05:51:11;2.38;;;0.70;;
7487;SDS011;3785;52.260;4.728;2023-09-19T05:54:32;2.53;;;0.68;;
7487;SDS011;3785;52.260;4.728;2023-09-19T05:57:54;3.17;;;1.10;;
7487;SDS011;3785;52.260;4.728;2023-09-19T06:01:15;3.72;;;1.10;;
7487;SDS011;3785;52.260;4.728;2023-09-19T06:04:36;1.85;;;0.80;;
7487;SDS011;3785;52.260;4.728;2023-09-19T06:08:00;2.47;;;0.85;;
7487;SDS011;3785;52.260;4.728;2023-09-19T06:11:27;4.40;;;0.90;;
7487;SDS011;3785;52.260;4.728;2023-09-19T06:14:51;4.57;;;0.90;;
7487;SDS011;3785;52.260;4.728;2023-09-19T06:18:13;2.75;;;0.80;;
7487;SDS011;3785;52.260;4.728;2023-09-19T06:21:39;5.05;;;1.05;;
7487;SDS011;3785;52.260;4.728;2023-09-19T06:25:00;3.10;;;0.82;;
7487;SDS011;3785;52.260;4.728;2023-09-19T06:28:22;4.07;;;0.82;;
7487;SDS011;3785;52.260;4.728;2023-09-19T06:31:44;1.92;;;0.75;;
7487;SDS011;3785;52.260;4.728;2023-09-19T06:35:05;2.55;;;1.10;;
7487;SDS011;3785;52.260;4.728;2023-09-19T06:38:28;1.65;;;0.80;;
7487;SDS011;3785;52.260;4.728;2023-09-19T06:41:49;3.45;;;0.88;;
7487;SDS011;3785;52.260;4.728;2023-09-19T06:45:11;1.58;;;0.85;;
7487;SDS011;3785;52.260;4.728;2023-09-19T06:48:33;3.47;;;0.98;;
7487;SDS011;3785;52.260;4.728;2023-09-19T06:51:54;2.30;;;0.60;;
7487;SDS011;3785;52.260;4.728;2023-09-19T06:55:20;5.30;;;1.00;;
7487;SDS011;3785;52.260;4.728;2023-09-19T06:58:44;5.20;;;1.05;;
7487;SDS011;3785;52.260;4.728;2023-09-19T07:02:05;4.22;;;1.00;;
7487;SDS011;3785;52.260;4.728;2023-09-19T07:05:27;2.55;;;0.93;;
7487;SDS011;3785;52.260;4.728;2023-09-19T07:08:48;2.90;;;0.68;;
7487;SDS011;3785;52.260;4.728;2023-09-19T07:12:10;2.90;;;0.75;;
7487;SDS011;3785;52.260;4.728;2023-09-19T07:15:32;5.20;;;1.20;;
7487;SDS011;3785;52.260;4.728;2023-09-19T07:18:55;4.82;;;0.88;;
7487;SDS011;3785;52.260;4.728;2023-09-19T07:22:17;5.90;;;1.05;;
7487;SDS011;3785;52.260;4.728;2023-09-19T07:25:38;3.75;;;0.80;;
7487;SDS011;3785;52.260;4.728;2023-09-19T07:28:59;2.47;;;0.98;;
7487;SDS011;3785;52.260;4.728;2023-09-19T07:32:22;4.60;;;1.40;;
7487;SDS011;3785;52.260;4.728;2023-09-19T07:35:46;2.97;;;1.00;;
7487;SDS011;3785;52.260;4.728;2023-09-19T07:39:07;4.60;;;1.45;;
7487;SDS011;3785;52.260;4.728;2023-09-19T07:42:28;3.13;;;0.90;;
7487;SDS011;3785;52.260;4.728;2023-09-19T07:45:49;5.32;;;1.17;;
7487;SDS011;3785;52.260;4.728;2023-09-19T07:49:10;5.78;;;1.15;;
7487;SDS011;3785;52.260;4.728;2023-09-19T07:52:31;5.93;;;1.45;;
7487;SDS011;3785;52.260;4.728;2023-09-19T07:56:01;4.65;;;1.23;;
7487;SDS011;3785;52.260;4.728;2023-09-19T07:59:22;6.60;;;1.20;;
7487;SDS011;3785;52.260;4.728;2023-09-19T08:02:43;5.22;;;0.85;;
7487;SDS011;3785;52.260;4.728;2023-09-19T08:06:04;2.85;;;0.90;;
7487;SDS011;3785;52.260;4.728;2023-09-19T08:09:25;4.82;;;1.20;;
7487;SDS011;3785;52.260;4.728;2023-09-19T08:12:46;4.25;;;1.02;;
7487;SDS011;3785;52.260;4.728;2023-09-19T08:16:08;5.72;;;1.88;;
7487;SDS011;3785;52.260;4.728;2023-09-19T08:19:29;4.55;;;1.10;;
7487;SDS011;3785;52.260;4.728;2023-09-19T08:22:52;5.68;;;1.17;;
7487;SDS011;3785;52.260;4.728;2023-09-19T08:26:17;3.15;;;0.95;;
7487;SDS011;3785;52.260;4.728;2023-09-19T08:29:39;4.28;;;1.10;;
7487;SDS011;3785;52.260;4.728;2023-09-19T08:33:02;3.50;;;1.10;;
7487;SDS011;3785;52.260;4.728;2023-09-19T08:36:24;3.15;;;1.15;;
7487;SDS011;3785;52.260;4.728;2023-09-19T08:39:45;4.80;;;1.27;;
7487;SDS011;3785;52.260;4.728;2023-09-19T08:43:06;5.78;;;1.00;;
7487;SDS011;3785;52.260;4.728;2023-09-19T08:46:27;2.33;;;0.80;;
7487;SDS011;3785;52.260;4.728;2023-09-19T08:49:53;6.22;;;1.38;;
7487;SDS011;3785;52.260;4.728;2023-09-19T08:53:21;5.15;;;1.20;;
7487;SDS011;3785;52.260;4.728;2023-09-19T08:56:43;4.88;;;1.08;;
7487;SDS011;3785;52.260;4.728;2023-09-19T09:00:05;7.28;;;2.10;;
7487;SDS011;3785;52.260;4.728;2023-09-19T09:03:32;4.93;;;1.20;;
7487;SDS011;3785;52.260;4.728;2023-09-19T09:06:54;4.47;;;1.27;;
7487;SDS011;3785;52.260;4.728;2023-09-19T09:10:16;6.40;;;1.13;;
7487;SDS011;3785;52.260;4.728;2023-09-19T09:13:37;2.78;;;1.38;;
7487;SDS011;3785;52.260;4.728;2023-09-19T09:16:59;3.25;;;1.02;;
7487;SDS011;3785;52.260;4.728;2023-09-19T09:20:20;4.30;;;1.08;;
7487;SDS011;3785;52.260;4.728;2023-09-19T09:23:41;4.53;;;0.93;;
7487;SDS011;3785;52.260;4.728;2023-09-19T09:27:05;3.97;;;1.20;;
7487;SDS011;3785;52.260;4.728;2023-09-19T09:30:37;5.68;;;1.27;;
7487;SDS011;3785;52.260;4.728;2023-09-19T09:33:58;4.35;;;1.10;;
7487;SDS011;3785;52.260;4.728;2023-09-19T09:37:20;6.25;;;1.20;;
7487;SDS011;3785;52.260;4.728;2023-09-19T09:40:50;4.25;;;0.80;;
7487;SDS011;3785;52.260;4.728;2023-09-19T09:44:14;4.50;;;1.50;;
7487;SDS011;3785;52.260;4.728;2023-09-19T09:47:41;3.88;;;1.13;;
7487;SDS011;3785;52.260;4.728;2023-09-19T09:51:02;4.53;;;1.58;;
7487;SDS011;3785;52.260;4.728;2023-09-19T09:54:23;3.67;;;1.00;;
7487;SDS011;3785;52.260;4.728;2023-09-19T09:57:48;5.32;;;1.27;;
7487;SDS011;3785;52.260;4.728;2023-09-19T10:01:18;7.32;;;1.27;;
7487;SDS011;3785;52.260;4.728;2023-09-19T10:04:40;3.85;;;1.38;;
7487;SDS011;3785;52.260;4.728;2023-09-19T10:08:11;4.78;;;1.00;;
7487;SDS011;3785;52.260;4.728;2023-09-19T10:11:33;4.57;;;1.05;;
7487;SDS011;3785;52.260;4.728;2023-09-19T10:14:59;2.38;;;0.90;;
7487;SDS011;3785;52.260;4.728;2023-09-19T10:18:21;4.75;;;1.13;;
7487;SDS011;3785;52.260;4.728;2023-09-19T10:21:43;5.15;;;1.33;;
7487;SDS011;3785;52.260;4.728;2023-09-19T10:25:05;4.28;;;0.75;;
7487;SDS011;3785;52.260;4.728;2023-09-19T10:28:28;4.15;;;1.00;;
7487;SDS011;3785;52.260;4.728;2023-09-19T10:31:51;2.33;;;0.80;;
7487;SDS011;3785;52.260;4.728;2023-09-19T10:35:13;3.95;;;0.98;;
7487;SDS011;3785;52.260;4.728;2023-09-19T10:38:35;1.83;;;0.68;;
7487;SDS011;3785;52.260;4.728;2023-09-19T10:41:57;2.33;;;0.73;;
7487;SDS011;3785;52.260;4.728;2023-09-19T10:45:25;2.45;;;0.68;;
7487;SDS011;3785;52.260;4.728;2023-09-19T10:48:46;2.53;;;0.82;;
7487;SDS011;3785;52.260;4.728;2023-09-19T10:52:10;3.03;;;0.75;;
7487;SDS011;3785;52.260;4.728;2023-09-19T10:55:35;2.53;;;0.57;;
7487;SDS011;3785;52.260;4.728;2023-09-19T10:59:09;4.60;;;0.90;;
7487;SDS011;3785;52.260;4.728;2023-09-19T11:02:43;3.55;;;0.95;;
7487;SDS011;3785;52.260;4.728;2023-09-19T11:06:05;2.80;;;0.70;;
7487;SDS011;3785;52.260;4.728;2023-09-19T11:13:28;2.33;;;1.00;;
7487;SDS011;3785;52.260;4.728;2023-09-19T11:20:27;2.88;;;0.90;;
7487;SDS011;3785;52.260;4.728;2023-09-19T11:27:31;2.40;;;0.73;;
7487;SDS011;3785;52.260;4.728;2023-09-19T11:30:54;5.28;;;1.42;;
7487;SDS011;3785;52.260;4.728;2023-09-19T11:44:41;2.80;;;0.77;;
7487;SDS011;3785;52.260;4.728;2023-09-19T11:48:02;0.80;;;0.40;;
7487;SDS011;3785;52.260;4.728;2023-09-19T11:51:24;2.30;;;0.80;;
7487;SDS011;3785;52.260;4.728;2023-09-19T11:54:53;1.63;;;0.95;;
7487;SDS011;3785;52.260;4.728;2023-09-19T11:58:15;1.38;;;0.60;;
7487;SDS011;3785;52.260;4.728;2023-09-19T12:01:37;2.83;;;0.45;;
7487;SDS011;3785;52.260;4.728;2023-09-19T12:05:00;1.60;;;0.55;;
7487;SDS011;3785;52.260;4.728;2023-09-19T12:08:21;2.75;;;0.70;;
7487;SDS011;3785;52.260;4.728;2023-09-19T12:11:43;2.05;;;0.70;;
7487;SDS011;3785;52.260;4.728;2023-09-19T12:15:05;1.88;;;0.63;;
7487;SDS011;3785;52.260;4.728;2023-09-19T12:18:29;5.82;;;0.57;;
7487;SDS011;3785;52.260;4.728;2023-09-19T12:21:57;2.97;;;0.70;;
7487;SDS011;3785;52.260;4.728;2023-09-19T12:25:19;1.92;;;1.08;;
7487;SDS011;3785;52.260;4.728;2023-09-19T12:28:41;1.88;;;0.60;;
7487;SDS011;3785;52.260;4.728;2023-09-19T12:32:03;2.97;;;0.75;;
7487;SDS011;3785;52.260;4.728;2023-09-19T12:35:28;2.95;;;0.85;;
7487;SDS011;3785;52.260;4.728;2023-09-19T12:38:59;3.47;;;0.95;;
7487;SDS011;3785;52.260;4.728;2023-09-19T12:42:21;3.17;;;0.70;;
7487;SDS011;3785;52.260;4.728;2023-09-19T12:45:42;4.05;;;0.82;;
7487;SDS011;3785;52.260;4.728;2023-09-19T12:49:26;2.50;;;0.80;;
7487;SDS011;3785;52.260;4.728;2023-09-19T12:52:48;2.58;;;0.98;;
7487;SDS011;3785;52.260;4.728;2023-09-19T12:56:09;2.03;;;0.82;;
7487;SDS011;3785;52.260;4.728;2023-09-19T12:59:32;2.00;;;0.90;;
7487;SDS011;3785;52.260;4.728;2023-09-19T13:06:56;2.15;;;0.85;;
7487;SDS011;3785;52.260;4.728;2023-09-19T13:10:20;4.10;;;0.90;;
7487;SDS011;3785;52.260;4.728;2023-09-19T13:17:06;2.80;;;0.60;;
7487;SDS011;3785;52.260;4.728;2023-09-19T13:20:38;2.30;;;0.85;;
7487;SDS011;3785;52.260;4.728;2023-09-19T13:24:23;4.28;;;1.00;;
7487;SDS011;3785;52.260;4.728;2023-09-19T13:27:49;2.22;;;0.77;;
7487;SDS011;3785;52.260;4.728;2023-09-19T13:31:11;1.10;;;0.47;;
7487;SDS011;3785;52.260;4.728;2023-09-19T13:34:33;2.22;;;0.77;;
7487;SDS011;3785;52.260;4.728;2023-09-19T13:37:54;4.25;;;1.00;;
7487;SDS011;3785;52.260;4.728;2023-09-19T13:41:15;2.15;;;0.80;;
7487;SDS011;3785;52.260;4.728;2023-09-19T13:44:36;2.80;;;0.93;;
7487;SDS011;3785;52.260;4.728;2023-09-19T13:47:58;4.35;;;0.80;;
7487;SDS011;3785;52.260;4.728;2023-09-19T13:51:19;2.72;;;1.05;;
7487;SDS011;3785;52.260;4.728;2023-09-19T13:54:41;4.32;;;1.38;;
7487;SDS011;3785;52.260;4.728;2023-09-19T13:58:02;2.90;;;1.10;;
7487;SDS011;3785;52.260;4.728;2023-09-19T14:01:26;4.57;;;1.23;;
7487;SDS011;3785;52.260;4.728;2023-09-19T14:04:47;2.67;;;1.10;;
7487;SDS011;3785;52.260;4.728;2023-09-19T14:08:08;3.28;;;1.10;;
7487;SDS011;3785;52.260;4.728;2023-09-19T14:11:29;2.40;;;0.90;;
7487;SDS011;3785;52.260;4.728;2023-09-19T14:14:50;2.00;;;0.80;;
7487;SDS011;3785;52.260;4.728;2023-09-19T14:18:11;1.98;;;1.00;;
7487;SDS011;3785;52.260;4.728;2023-09-19T14:21:32;3.40;;;1.25;;
7487;SDS011;3785;52.260;4.728;2023-09-19T14:24:53;5.53;;;1.35;;
7487;SDS011;3785;52.260;4.728;2023-09-19T14:28:14;4.07;;;1.48;;
7487;SDS011;3785;52.260;4.728;2023-09-19T14:31:38;4.43;;;1.40;;
7487;SDS011;3785;52.260;4.728;2023-09-19T14:35:02;4.82;;;1.50;;
7487;SDS011;3785;52.260;4.728;2023-09-19T14:38:23;3.25;;;1.17;;
7487;SDS011;3785;52.260;4.728;2023-09-19T14:41:45;1.73;;;1.10;;
7487;SDS011;3785;52.260;4.728;2023-09-19T14:45:06;3.75;;;1.13;;
7487;SDS011;3785;52.260;4.728;2023-09-19T14:48:27;1.95;;;0.80;;
7487;SDS011;3785;52.260;4.728;2023-09-19T14:51:48;4.82;;;1.20;;
7487;SDS011;3785;52.260;4.728;2023-09-19T14:55:09;3.90;;;0.90;;
7487;SDS011;3785;52.260;4.728;2023-09-19T14:58:34;6.28;;;1.33;;
7487;SDS011;3785;52.260;4.728;2023-09-19T15:01:55;3.35;;;1.00;;
7487;SDS011;3785;52.260;4.728;2023-09-19T15:05:16;2.25;;;1.08;;
7487;SDS011;3785;52.260;4.728;2023-09-19T15:08:37;4.63;;;1.20;;
7487;SDS011;3785;52.260;4.728;2023-09-19T15:11:58;4.13;;;0.98;;
7487;SDS011;3785;52.260;4.728;2023-09-19T15:15:19;4.93;;;1.10;;
7487;SDS011;3785;52.260;4.728;2023-09-19T15:18:41;4.30;;;1.17;;
7487;SDS011;3785;52.260;4.728;2023-09-19T15:22:02;3.53;;;0.98;;
7487;SDS011;3785;52.260;4.728;2023-09-19T15:25:23;3.42;;;1.35;;
7487;SDS011;3785;52.260;4.728;2023-09-19T15:28:47;4.60;;;1.40;;
7487;SDS011;3785;52.260;4.728;2023-09-19T15:32:09;3.90;;;1.10;;
7487;SDS011;3785;52.260;4.728;2023-09-19T15:35:30;2.55;;;1.17;;
7487;SDS011;3785;52.260;4.728;2023-09-19T15:42:13;3.22;;;1.52;;
7487;SDS011;3785;52.260;4.728;2023-09-19T15:45:36;6.40;;;1.48;;
7487;SDS011;3785;52.260;4.728;2023-09-19T15:48:57;5.53;;;1.55;;
7487;SDS011;3785;52.260;4.728;2023-09-19T15:52:18;6.00;;;1.30;;
7487;SDS011;3785;52.260;4.728;2023-09-19T15:55:39;3.13;;;1.25;;
7487;SDS011;3785;52.260;4.728;2023-09-19T15:59:00;6.07;;;1.30;;
7487;SDS011;3785;52.260;4.728;2023-09-19T16:02:21;4.40;;;1.58;;
7487;SDS011;3785;52.260;4.728;2023-09-19T16:05:42;2.25;;;1.08;;
7487;SDS011;3785;52.260;4.728;2023-09-19T16:09:03;3.63;;;1.50;;
7487;SDS011;3785;52.260;4.728;2023-09-19T16:12:25;3.63;;;1.15;;
7487;SDS011;3785;52.260;4.728;2023-09-19T16:15:46;2.55;;;1.27;;
7487;SDS011;3785;52.260;4.728;2023-09-19T16:19:07;3.75;;;1.58;;
7487;SDS011;3785;52.260;4.728;2023-09-19T16:22:30;4.22;;;2.00;;
7487;SDS011;3785;52.260;4.728;2023-09-19T16:26:00;7.60;;;2.95;;
7487;SDS011;3785;52.260;4.728;2023-09-19T16:29:21;9.48;;;3.47;;
7487;SDS011;3785;52.260;4.728;2023-09-19T16:32:44;10.77;;;6.57;;
7487;SDS011;3785;52.260;4.728;2023-09-19T16:36:08;11.00;;;5.85;;
7487;SDS011;3785;52.260;4.728;2023-09-19T16:39:30;12.05;;;6.68;;
7487;SDS011;3785;52.260;4.728;2023-09-19T16:42:51;13.57;;;7.03;;
7487;SDS011;3785;52.260;4.728;2023-09-19T16:46:14;14.70;;;6.57;;
7487;SDS011;3785;52.260;4.728;2023-09-19T16:49:39;11.68;;;7.25;;
7487;SDS011;3785;52.260;4.728;2023-09-19T16:53:00;16.83;;;7.47;;
7487;SDS011;3785;52.260;4.728;2023-09-19T16:56:21;14.55;;;6.30;;
7487;SDS011;3785;52.260;4.728;2023-09-19T16:59:41;7.57;;;4.25;;
7487;SDS011;3785;52.260;4.728;2023-09-19T17:03:02;6.70;;;4.45;;
7487;SDS011;3785;52.260;4.728;2023-09-19T17:06:24;7.00;;;4.25;;
7487;SDS011;3785;52.260;4.728;2023-09-19T17:09:46;6.60;;;2.50;;
7487;SDS011;3785;52.260;4.728;2023-09-19T17:13:07;6.25;;;2.40;;
7487;SDS011;3785;52.260;4.728;2023-09-19T17:16:28;4.43;;;1.50;;
7487;SDS011;3785;52.260;4.728;2023-09-19T17:19:49;3.50;;;1.75;;
7487;SDS011;3785;52.260;4.728;2023-09-19T17:23:10;5.93;;;2.08;;
7487;SDS011;3785;52.260;4.728;2023-09-19T17:26:31;5.28;;;1.73;;
7487;SDS011;3785;52.260;4.728;2023-09-19T17:29:53;6.82;;;1.90;;
7487;SDS011;3785;52.260;4.728;2023-09-19T17:33:14;2.97;;;1.30;;
7487;SDS011;3785;52.260;4.728;2023-09-19T17:36:35;4.93;;;1.80;;
7487;SDS011;3785;52.260;4.728;2023-09-19T17:39:56;4.63;;;1.15;;
7487;SDS011;3785;52.260;4.728;2023-09-19T17:43:21;2.63;;;1.27;;
7487;SDS011;3785;52.260;4.728;2023-09-19T17:46:42;3.80;;;1.67;;
7487;SDS011;3785;52.260;4.728;2023-09-19T17:50:03;5.07;;;1.77;;
7487;SDS011;3785;52.260;4.728;2023-09-19T17:53:25;4.28;;;1.50;;
7487;SDS011;3785;52.260;4.728;2023-09-19T17:56:46;5.43;;;1.20;;
7487;SDS011;3785;52.260;4.728;2023-09-19T18:00:08;3.88;;;1.35;;
7487;SDS011;3785;52.260;4.728;2023-09-19T18:03:30;3.95;;;1.35;;
7487;SDS011;3785;52.260;4.728;2023-09-19T18:06:51;3.30;;;1.73;;
7487;SDS011;3785;52.260;4.728;2023-09-19T18:10:12;3.22;;;1.30;;
7487;SDS011;3785;52.260;4.728;2023-09-19T18:13:33;2.65;;;1.30;;
7487;SDS011;3785;52.260;4.728;2023-09-19T18:16:54;3.55;;;1.33;;
7487;SDS011;3785;52.260;4.728;2023-09-19T18:20:17;6.05;;;1.50;;
7487;SDS011;3785;52.260;4.728;2023-09-19T18:23:39;4.03;;;1.60;;
7487;SDS011;3785;52.260;4.728;2023-09-19T18:27:00;4.47;;;1.45;;
7487;SDS011;3785;52.260;4.728;2023-09-19T18:30:23;4.68;;;1.40;;
7487;SDS011;3785;52.260;4.728;2023-09-19T18:33:45;2.67;;;1.17;;
7487;SDS011;3785;52.260;4.728;2023-09-19T18:37:08;4.18;;;1.55;;
7487;SDS011;3785;52.260;4.728;2023-09-19T18:40:30;4.15;;;1.38;;
7487;SDS011;3785;52.260;4.728;2023-09-19T18:43:52;2.20;;;1.30;;
7487;SDS011;3785;52.260;4.728;2023-09-19T18:47:13;6.78;;;1.80;;
7487;SDS011;3785;52.260;4.728;2023-09-19T18:50:34;3.90;;;1.58;;
7487;SDS011;3785;52.260;4.728;2023-09-19T18:53:55;4.05;;;1.55;;
7487;SDS011;3785;52.260;4.728;2023-09-19T18:57:17;3.42;;;1.40;;
7487;SDS011;3785;52.260;4.728;2023-09-19T19:00:39;6.55;;;1.70;;
7487;SDS011;3785;52.260;4.728;2023-09-19T19:04:00;3.95;;;1.77;;
7487;SDS011;3785;52.260;4.728;2023-09-19T19:07:21;4.15;;;1.70;;
7487;SDS011;3785;52.260;4.728;2023-09-19T19:10:45;5.32;;;1.63;;
7487;SDS011;3785;52.260;4.728;2023-09-19T19:14:07;4.10;;;1.75;;
7487;SDS011;3785;52.260;4.728;2023-09-19T19:17:33;3.65;;;1.73;;
7487;SDS011;3785;52.260;4.728;2023-09-19T19:21:01;3.75;;;1.70;;
7487;SDS011;3785;52.260;4.728;2023-09-19T19:24:24;4.30;;;1.83;;
7487;SDS011;3785;52.260;4.728;2023-09-19T19:27:45;5.45;;;1.90;;
7487;SDS011;3785;52.260;4.728;2023-09-19T19:31:08;7.32;;;1.95;;
7487;SDS011;3785;52.260;4.728;2023-09-19T19:34:29;4.40;;;1.75;;
7487;SDS011;3785;52.260;4.728;2023-09-19T19:37:53;4.15;;;1.63;;
7487;SDS011;3785;52.260;4.728;2023-09-19T19:41:18;3.90;;;1.83;;
7487;SDS011;3785;52.260;4.728;2023-09-19T19:44:39;4.30;;;1.73;;
7487;SDS011;3785;52.260;4.728;2023-09-19T19:48:00;4.07;;;1.65;;
7487;SDS011;3785;52.260;4.728;2023-09-19T19:51:21;6.60;;;1.95;;
7487;SDS011;3785;52.260;4.728;2023-09-19T19:54:43;4.35;;;1.70;;
7487;SDS011;3785;52.260;4.728;2023-09-19T19:58:05;3.65;;;1.75;;
7487;SDS011;3785;52.260;4.728;2023-09-19T20:01:26;3.72;;;1.63;;
7487;SDS011;3785;52.260;4.728;2023-09-19T20:04:48;4.07;;;1.92;;
7487;SDS011;3785;52.260;4.728;2023-09-19T20:08:09;3.03;;;1.90;;
7487;SDS011;3785;52.260;4.728;2023-09-19T20:11:31;3.53;;;1.63;;
7487;SDS011;3785;52.260;4.728;2023-09-19T20:14:53;3.03;;;1.35;;
7487;SDS011;3785;52.260;4.728;2023-09-19T20:18:16;4.25;;;1.48;;
7487;SDS011;3785;52.260;4.728;2023-09-19T20:21:39;5.10;;;1.88;;
7487;SDS011;3785;52.260;4.728;2023-09-19T20:25:00;2.45;;;1.33;;
7487;SDS011;3785;52.260;4.728;2023-09-19T20:28:24;3.85;;;1.40;;
7487;SDS011;3785;52.260;4.728;2023-09-19T20:31:45;7.15;;;1.80;;
7487;SDS011;3785;52.260;4.728;2023-09-19T20:35:07;5.82;;;1.75;;
7487;SDS011;3785;52.260;4.728;2023-09-19T20:38:28;3.72;;;1.70;;
7487;SDS011;3785;52.260;4.728;2023-09-19T20:41:49;6.10;;;1.50;;
7487;SDS011;3785;52.260;4.728;2023-09-19T20:45:11;3.42;;;1.50;;
7487;SDS011;3785;52.260;4.728;2023-09-19T20:48:33;4.13;;;1.73;;
7487;SDS011;3785;52.260;4.728;2023-09-19T20:51:54;4.45;;;1.65;;
7487;SDS011;3785;52.260;4.728;2023-09-19T20:55:16;4.07;;;1.42;;
7487;SDS011;3785;52.260;4.728;2023-09-19T20:58:38;2.33;;;1.35;;
7487;SDS011;3785;52.260;4.728;2023-09-19T21:01:59;5.30;;;2.00;;
7487;SDS011;3785;52.260;4.728;2023-09-19T21:05:21;4.90;;;1.75;;
7487;SDS011;3785;52.260;4.728;2023-09-19T21:08:42;3.63;;;1.35;;
7487;SDS011;3785;52.260;4.728;2023-09-19T21:12:04;2.65;;;1.17;;
7487;SDS011;3785;52.260;4.728;2023-09-19T21:15:25;5.95;;;1.58;;
7487;SDS011;3785;52.260;4.728;2023-09-19T21:18:48;5.00;;;1.73;;
7487;SDS011;3785;52.260;4.728;2023-09-19T21:22:09;4.47;;;1.75;;
7487;SDS011;3785;52.260;4.728;2023-09-19T21:25:31;6.63;;;1.83;;
7487;SDS011;3785;52.260;4.728;2023-09-19T21:28:52;5.35;;;1.65;;
7487;SDS011;3785;52.260;4.728;2023-09-19T21:32:14;3.33;;;1.40;;
7487;SDS011;3785;52.260;4.728;2023-09-19T21:35:43;3.85;;;1.75;;
7487;SDS011;3785;52.260;4.728;2023-09-19T21:39:05;3.13;;;1.70;;
7487;SDS011;3785;52.260;4.728;2023-09-19T21:42:26;4.13;;;1.75;;